Edgewater, MD

2:02 AM EDT on April 26, 2015 (GMT -0400)
Tandem Point | | Change Station
CLOSE
Current Station
Personal Weather Station
Location: Edgewater, MD
Elevation: 25 ft
Nearby Weather Stations

Elev 25 ft 38.89 °N, 76.53 °W | Updated 27 seconds ago

Overcast
Overcast
43.2 °F
Feels Like 43 °F
N
0.0
Wind Variable Wind from East
Gusts 0.0 mph

Today
High -- | Low -- °F
--% Chance of Precip.
Yesterday
High -- | Low -- °F
Precip. -- in
6:14 AM 7:53 PM
First Quarter, 52% visible
Pressure 29.69 in
Visibility 10.0 miles
Clouds Overcast 7000 ft
Windchill 43 °F
Dew Point 43 °F
Humidity 98%
Rainfall 0.00 in
Snow Depth Not available.
UV 0.0 out of 12
Pollen 10.00 out of 12
Air Quality Not available.
Flu Activity Regional
METAR KNAK 260554Z AUTO 00000KT 10SM OVC070 07/04 A2968 RMK AO2 RAE01 SLP053 P0000 60017 T00670044 10072 20061 56028

More Conditions Fewer Conditions

Pressure 29.69 in
Visibility 10.0 miles
Clouds Overcast 7000 ft
Windchill 43 °F
Dew Point 43 °F
Humidity 98%
Rainfall 0.00 in
Snow Depth Not available.
UV 0.0 out of 12
Pollen 10.00 out of 12
Air Quality Not available.
Flu Activity Regional
METAR KNAK 260554Z AUTO 00000KT 10SM OVC070 07/04 A2968 RMK AO2 RAE01 SLP053 P0000 60017 T00670044 10072 20061 56028

More Conditions Fewer Conditions

The full scope of the disaster following a powerful 7.8-magnitude earthquake in Nepal may not come into view for days, but global charities are already sending emergency aid. Click to see how you can help.

10-Day Weather Forecast

Almanac

Astronomy

Apr. 26, 2015 Rise Set
Actual Time
Civil Twilight
Nautical Twilight
Astronomical Twilight
Moon
Length of Visible Light
Length of Day
Tomorrow will be .
, % of the Moon is Illuminated

Today's Extremes

State Highs State Lows

Community

WunderPhotos

Upload Photos

1,816,947 photos uploaded!

WunderBlogs® & News

Nearby

Air Quality

  Air Quality AQ Index Pollutant
Not available.

Snow Depth

Station Depth Elevation

Earthquake Activity

City Distance Mag. Time & Date
Minimum magnitude displayed is 2.5.

Coastal Water Temperatures

Place Temperature

Stations

Nearby Weather Stations

Station Location Temp. Windchill Dew Point Humidity Wind Precip. Elev Updated Type